sensor_id;sensor_type;location;lat;lon;timestamp;temperature;humidity
42421;DHT22;28063;48.140;11.588;2023-03-09T00:02:10;9.00;99.90
42421;DHT22;28063;48.140;11.588;2023-03-09T00:04:38;9.00;99.90
42421;DHT22;28063;48.140;11.588;2023-03-09T00:07:04;9.10;99.90
42421;DHT22;28063;48.140;11.588;2023-03-09T00:09:30;9.10;99.90
42421;DHT22;28063;48.140;11.588;2023-03-09T00:11:56;9.20;99.90
42421;DHT22;28063;48.140;11.588;2023-03-09T00:14:21;9.20;99.90
42421;DHT22;28063;48.140;11.588;2023-03-09T00:16:48;9.30;99.90
42421;DHT22;28063;48.140;11.588;2023-03-09T00:19:13;9.30;99.90
42421;DHT22;28063;48.140;11.588;2023-03-09T00:21:47;9.40;99.90
42421;DHT22;28063;48.140;11.588;2023-03-09T00:24:18;9.40;99.90
42421;DHT22;28063;48.140;11.588;2023-03-09T00:26:51;9.50;99.90
42421;DHT22;28063;48.140;11.588;2023-03-09T00:29:17;9.50;99.90
42421;DHT22;28063;48.140;11.588;2023-03-09T00:31:43;9.60;99.90
42421;DHT22;28063;48.140;11.588;2023-03-09T00:34:10;9.60;99.90
42421;DHT22;28063;48.140;11.588;2023-03-09T00:36:36;9.70;99.90
42421;DHT22;28063;48.140;11.588;2023-03-09T00:39:03;9.70;99.90
42421;DHT22;28063;48.140;11.588;2023-03-09T00:41:30;9.70;99.90
42421;DHT22;28063;48.140;11.588;2023-03-09T00:44:01;9.60;99.90
42421;DHT22;28063;48.140;11.588;2023-03-09T00:46:28;9.60;99.90
42421;DHT22;28063;48.140;11.588;2023-03-09T00:48:54;9.60;99.90
42421;DHT22;28063;48.140;11.588;2023-03-09T00:51:20;9.70;99.90
42421;DHT22;28063;48.140;11.588;2023-03-09T00:53:46;9.90;99.90
42421;DHT22;28063;48.140;11.588;2023-03-09T00:56:16;9.90;99.60
42421;DHT22;28063;48.140;11.588;2023-03-09T00:58:42;10.00;99.00
42421;DHT22;28063;48.140;11.588;2023-03-09T01:01:10;10.00;98.70
42421;DHT22;28063;48.140;11.588;2023-03-09T01:03:36;10.10;98.40
42421;DHT22;28063;48.140;11.588;2023-03-09T01:06:02;10.20;98.20
42421;DHT22;28063;48.140;11.588;2023-03-09T01:08:28;10.20;97.90
42421;DHT22;28063;48.140;11.588;2023-03-09T01:10:54;10.30;97.40
42421;DHT22;28063;48.140;11.588;2023-03-09T01:13:20;10.40;97.00
42421;DHT22;28063;48.140;11.588;2023-03-09T01:15:46;10.50;96.70
42421;DHT22;28063;48.140;11.588;2023-03-09T01:18:12;10.50;96.50
42421;DHT22;28063;48.140;11.588;2023-03-09T01:20:38;10.50;96.20
42421;DHT22;28063;48.140;11.588;2023-03-09T01:23:04;10.50;96.00
42421;DHT22;28063;48.140;11.588;2023-03-09T01:25:29;10.40;95.80
42421;DHT22;28063;48.140;11.588;2023-03-09T01:27:55;10.40;95.70
42421;DHT22;28063;48.140;11.588;2023-03-09T01:30:21;10.30;95.60
42421;DHT22;28063;48.140;11.588;2023-03-09T01:32:47;10.20;95.50
42421;DHT22;28063;48.140;11.588;2023-03-09T01:35:12;10.20;95.50
42421;DHT22;28063;48.140;11.588;2023-03-09T01:37:38;10.20;95.50
42421;DHT22;28063;48.140;11.588;2023-03-09T01:40:05;10.20;95.40
42421;DHT22;28063;48.140;11.588;2023-03-09T01:42:33;10.30;95.40
42421;DHT22;28063;48.140;11.588;2023-03-09T01:47:44;10.50;94.90
42421;DHT22;28063;48.140;11.588;2023-03-09T01:50:10;10.60;94.60
42421;DHT22;28063;48.140;11.588;2023-03-09T01:52:36;10.60;94.20
42421;DHT22;28063;48.140;11.588;2023-03-09T01:55:12;10.70;94.00
42421;DHT22;28063;48.140;11.588;2023-03-09T01:57:44;10.70;93.70
42421;DHT22;28063;48.140;11.588;2023-03-09T02:00:13;10.80;93.20
42421;DHT22;28063;48.140;11.588;2023-03-09T02:02:40;10.80;92.90
42421;DHT22;28063;48.140;11.588;2023-03-09T02:05:12;10.70;92.90
42421;DHT22;28063;48.140;11.588;2023-03-09T02:07:40;10.70;92.90
42421;DHT22;28063;48.140;11.588;2023-03-09T02:10:15;10.60;92.90
42421;DHT22;28063;48.140;11.588;2023-03-09T02:12:45;10.60;92.90
42421;DHT22;28063;48.140;11.588;2023-03-09T02:15:12;10.60;92.80
42421;DHT22;28063;48.140;11.588;2023-03-09T02:17:38;10.70;92.70
42421;DHT22;28063;48.140;11.588;2023-03-09T02:23:44;10.90;92.30
42421;DHT22;28063;48.140;11.588;2023-03-09T02:28:41;10.90;92.20
42421;DHT22;28063;48.140;11.588;2023-03-09T02:31:08;10.90;92.30
42421;DHT22;28063;48.140;11.588;2023-03-09T02:33:34;10.90;92.30
42421;DHT22;28063;48.140;11.588;2023-03-09T02:36:00;10.90;92.30
42421;DHT22;28063;48.140;11.588;2023-03-09T02:38:26;10.90;93.20
42421;DHT22;28063;48.140;11.588;2023-03-09T02:40:55;10.80;93.90
42421;DHT22;28063;48.140;11.588;2023-03-09T02:43:24;10.60;94.20
42421;DHT22;28063;48.140;11.588;2023-03-09T02:45:52;10.50;94.50
42421;DHT22;28063;48.140;11.588;2023-03-09T02:48:18;10.50;95.00
42421;DHT22;28063;48.140;11.588;2023-03-09T02:50:43;10.40;96.00
42421;DHT22;28063;48.140;11.588;2023-03-09T02:53:09;10.30;96.80
42421;DHT22;28063;48.140;11.588;2023-03-09T02:55:35;10.20;98.40
42421;DHT22;28063;48.140;11.588;2023-03-09T02:58:01;10.00;99.20
42421;DHT22;28063;48.140;11.588;2023-03-09T03:00:27;9.50;99.90
42421;DHT22;28063;48.140;11.588;2023-03-09T03:02:53;9.10;99.90
42421;DHT22;28063;48.140;11.588;2023-03-09T03:05:19;8.80;99.90
42421;DHT22;28063;48.140;11.588;2023-03-09T03:07:44;8.50;99.90
42421;DHT22;28063;48.140;11.588;2023-03-09T03:10:12;8.40;99.90
42421;DHT22;28063;48.140;11.588;2023-03-09T03:12:38;8.20;99.90
42421;DHT22;28063;48.140;11.588;2023-03-09T03:15:05;8.10;99.90
42421;DHT22;28063;48.140;11.588;2023-03-09T03:17:31;8.00;99.90
42421;DHT22;28063;48.140;11.588;2023-03-09T03:19:56;7.90;99.90
42421;DHT22;28063;48.140;11.588;2023-03-09T03:22:22;7.90;99.90
42421;DHT22;28063;48.140;11.588;2023-03-09T03:24:48;7.80;99.90
42421;DHT22;28063;48.140;11.588;2023-03-09T03:27:13;7.80;99.90
42421;DHT22;28063;48.140;11.588;2023-03-09T03:29:39;7.80;99.90
42421;DHT22;28063;48.140;11.588;2023-03-09T03:32:05;7.90;99.90
42421;DHT22;28063;48.140;11.588;2023-03-09T03:34:31;7.90;99.90
42421;DHT22;28063;48.140;11.588;2023-03-09T03:36:56;7.90;99.90
42421;DHT22;28063;48.140;11.588;2023-03-09T03:39:22;7.90;99.90
42421;DHT22;28063;48.140;11.588;2023-03-09T03:41:48;7.90;99.90
42421;DHT22;28063;48.140;11.588;2023-03-09T03:44:14;7.90;99.90
42421;DHT22;28063;48.140;11.588;2023-03-09T03:46:39;7.90;99.90
42421;DHT22;28063;48.140;11.588;2023-03-09T03:49:05;8.00;99.90
42421;DHT22;28063;48.140;11.588;2023-03-09T03:51:31;8.00;99.90
42421;DHT22;28063;48.140;11.588;2023-03-09T03:53:56;8.10;99.90
42421;DHT22;28063;48.140;11.588;2023-03-09T03:56:22;8.10;99.90
42421;DHT22;28063;48.140;11.588;2023-03-09T03:58:48;8.20;99.90
42421;DHT22;28063;48.140;11.588;2023-03-09T04:01:14;8.20;99.90
42421;DHT22;28063;48.140;11.588;2023-03-09T04:03:39;8.30;99.90
42421;DHT22;28063;48.140;11.588;2023-03-09T04:06:05;8.30;99.90
42421;DHT22;28063;48.140;11.588;2023-03-09T04:08:31;8.30;99.90
42421;DHT22;28063;48.140;11.588;2023-03-09T04:10:57;8.40;99.90
42421;DHT22;28063;48.140;11.588;2023-03-09T04:13:23;8.40;99.90
42421;DHT22;28063;48.140;11.588;2023-03-09T04:15:49;8.40;99.90
42421;DHT22;28063;48.140;11.588;2023-03-09T04:18:15;8.50;99.90
42421;DHT22;28063;48.140;11.588;2023-03-09T04:20:42;8.40;99.90
42421;DHT22;28063;48.140;11.588;2023-03-09T04:23:10;8.40;99.90
42421;DHT22;28063;48.140;11.588;2023-03-09T04:25:36;8.40;99.90
42421;DHT22;28063;48.140;11.588;2023-03-09T04:28:01;8.40;99.90
42421;DHT22;28063;48.140;11.588;2023-03-09T04:30:28;8.50;99.90
42421;DHT22;28063;48.140;11.588;2023-03-09T04:32:54;8.60;99.90
42421;DHT22;28063;48.140;11.588;2023-03-09T04:35:19;8.60;99.90
42421;DHT22;28063;48.140;11.588;2023-03-09T04:37:45;8.60;99.90
42421;DHT22;28063;48.140;11.588;2023-03-09T04:40:11;8.60;99.90
42421;DHT22;28063;48.140;11.588;2023-03-09T04:42:37;8.60;99.90
42421;DHT22;28063;48.140;11.588;2023-03-09T04:45:04;8.60;99.90
42421;DHT22;28063;48.140;11.588;2023-03-09T04:47:30;8.60;99.90
42421;DHT22;28063;48.140;11.588;2023-03-09T04:49:56;8.60;99.90
42421;DHT22;28063;48.140;11.588;2023-03-09T04:52:22;8.50;99.90
42421;DHT22;28063;48.140;11.588;2023-03-09T04:54:48;8.50;99.90
42421;DHT22;28063;48.140;11.588;2023-03-09T04:57:14;8.50;99.90
42421;DHT22;28063;48.140;11.588;2023-03-09T04:59:40;8.50;99.90
42421;DHT22;28063;48.140;11.588;2023-03-09T05:02:06;8.50;99.90
42421;DHT22;28063;48.140;11.588;2023-03-09T05:04:32;8.60;99.90
42421;DHT22;28063;48.140;11.588;2023-03-09T05:06:58;8.60;99.90
42421;DHT22;28063;48.140;11.588;2023-03-09T05:09:24;8.70;99.90
42421;DHT22;28063;48.140;11.588;2023-03-09T05:11:50;8.70;99.90
42421;DHT22;28063;48.140;11.588;2023-03-09T05:14:18;8.60;99.90
42421;DHT22;28063;48.140;11.588;2023-03-09T05:16:44;8.50;99.90
42421;DHT22;28063;48.140;11.588;2023-03-09T05:19:11;8.40;99.90
42421;DHT22;28063;48.140;11.588;2023-03-09T05:21:37;8.30;99.90
42421;DHT22;28063;48.140;11.588;2023-03-09T05:24:03;8.20;99.90
42421;DHT22;28063;48.140;11.588;2023-03-09T05:26:29;8.10;99.90
42421;DHT22;28063;48.140;11.588;2023-03-09T05:28:55;8.10;99.90
42421;DHT22;28063;48.140;11.588;2023-03-09T05:31:21;8.10;99.90
42421;DHT22;28063;48.140;11.588;2023-03-09T05:33:46;8.10;99.90
42421;DHT22;28063;48.140;11.588;2023-03-09T05:36:17;8.20;99.90
42421;DHT22;28063;48.140;11.588;2023-03-09T05:38:44;8.20;99.90
42421;DHT22;28063;48.140;11.588;2023-03-09T05:41:10;8.20;99.90
42421;DHT22;28063;48.140;11.588;2023-03-09T05:43:36;8.20;99.90
42421;DHT22;28063;48.140;11.588;2023-03-09T05:46:02;8.20;99.90
42421;DHT22;28063;48.140;11.588;2023-03-09T05:48:27;8.10;99.90
42421;DHT22;28063;48.140;11.588;2023-03-09T05:50:53;8.10;99.90
42421;DHT22;28063;48.140;11.588;2023-03-09T05:53:19;8.10;99.90
42421;DHT22;28063;48.140;11.588;2023-03-09T05:55:49;8.00;99.90
42421;DHT22;28063;48.140;11.588;2023-03-09T05:58:15;8.00;99.90
42421;DHT22;28063;48.140;11.588;2023-03-09T06:00:41;7.90;99.90
42421;DHT22;28063;48.140;11.588;2023-03-09T06:03:06;7.90;99.90
42421;DHT22;28063;48.140;11.588;2023-03-09T06:05:32;7.90;99.90
42421;DHT22;28063;48.140;11.588;2023-03-09T06:07:58;7.90;99.90
42421;DHT22;28063;48.140;11.588;2023-03-09T06:10:24;7.90;99.90
42421;DHT22;28063;48.140;11.588;2023-03-09T06:12:49;7.90;99.90
42421;DHT22;28063;48.140;11.588;2023-03-09T06:15:18;7.90;99.90
42421;DHT22;28063;48.140;11.588;2023-03-09T06:17:44;7.80;99.90
42421;DHT22;28063;48.140;11.588;2023-03-09T06:20:10;7.90;99.90
42421;DHT22;28063;48.140;11.588;2023-03-09T06:22:36;7.90;99.90
42421;DHT22;28063;48.140;11.588;2023-03-09T06:25:02;7.80;99.90
42421;DHT22;28063;48.140;11.588;2023-03-09T06:27:28;7.80;99.90
42421;DHT22;28063;48.140;11.588;2023-03-09T06:29:54;7.90;99.90
42421;DHT22;28063;48.140;11.588;2023-03-09T06:32:20;7.90;99.90
42421;DHT22;28063;48.140;11.588;2023-03-09T06:34:46;7.90;99.90
42421;DHT22;28063;48.140;11.588;2023-03-09T06:37:11;8.00;99.90
42421;DHT22;28063;48.140;11.588;2023-03-09T06:39:37;8.00;99.90
42421;DHT22;28063;48.140;11.588;2023-03-09T06:42:03;8.00;99.90
42421;DHT22;28063;48.140;11.588;2023-03-09T06:44:29;8.00;99.90
42421;DHT22;28063;48.140;11.588;2023-03-09T06:46:54;8.10;99.90
42421;DHT22;28063;48.140;11.588;2023-03-09T06:49:20;8.10;99.90
42421;DHT22;28063;48.140;11.588;2023-03-09T06:51:46;8.20;99.90
42421;DHT22;28063;48.140;11.588;2023-03-09T06:54:14;8.20;99.90
42421;DHT22;28063;48.140;11.588;2023-03-09T06:56:40;8.30;99.90
42421;DHT22;28063;48.140;11.588;2023-03-09T06:59:05;8.30;99.90
42421;DHT22;28063;48.140;11.588;2023-03-09T07:01:31;8.30;99.90
42421;DHT22;28063;48.140;11.588;2023-03-09T07:03:57;8.30;99.90
42421;DHT22;28063;48.140;11.588;2023-03-09T07:06:23;8.30;99.90
42421;DHT22;28063;48.140;11.588;2023-03-09T07:08:48;8.30;99.90
42421;DHT22;28063;48.140;11.588;2023-03-09T07:11:14;8.40;99.90
42421;DHT22;28063;48.140;11.588;2023-03-09T07:13:39;8.50;99.90
42421;DHT22;28063;48.140;11.588;2023-03-09T07:16:06;8.60;99.90
42421;DHT22;28063;48.140;11.588;2023-03-09T07:18:32;8.70;99.90
42421;DHT22;28063;48.140;11.588;2023-03-09T07:20:59;8.80;99.90
42421;DHT22;28063;48.140;11.588;2023-03-09T07:23:27;8.90;99.90
42421;DHT22;28063;48.140;11.588;2023-03-09T07:25:53;8.90;99.90
42421;DHT22;28063;48.140;11.588;2023-03-09T07:28:18;8.90;99.90
42421;DHT22;28063;48.140;11.588;2023-03-09T07:30:44;8.90;99.90
42421;DHT22;28063;48.140;11.588;2023-03-09T07:33:10;8.90;99.90
42421;DHT22;28063;48.140;11.588;2023-03-09T07:35:39;8.80;99.90
42421;DHT22;28063;48.140;11.588;2023-03-09T07:38:04;8.80;99.90
42421;DHT22;28063;48.140;11.588;2023-03-09T07:40:30;8.70;99.90
42421;DHT22;28063;48.140;11.588;2023-03-09T07:42:56;8.70;99.90
42421;DHT22;28063;48.140;11.588;2023-03-09T07:45:22;8.70;99.90
42421;DHT22;28063;48.140;11.588;2023-03-09T07:47:48;8.80;99.90
42421;DHT22;28063;48.140;11.588;2023-03-09T07:50:15;9.00;99.90
42421;DHT22;28063;48.140;11.588;2023-03-09T07:52:41;9.10;99.90
42421;DHT22;28063;48.140;11.588;2023-03-09T07:55:09;9.30;99.90
42421;DHT22;28063;48.140;11.588;2023-03-09T07:57:35;9.50;99.90
42421;DHT22;28063;48.140;11.588;2023-03-09T08:00:01;9.70;99.90
42421;DHT22;28063;48.140;11.588;2023-03-09T08:02:31;9.90;99.90
42421;DHT22;28063;48.140;11.588;2023-03-09T08:04:57;10.10;99.90
42421;DHT22;28063;48.140;11.588;2023-03-09T08:07:23;10.30;99.90
42421;DHT22;28063;48.140;11.588;2023-03-09T08:09:48;10.30;99.90
42421;DHT22;28063;48.140;11.588;2023-03-09T08:12:14;10.40;99.90
42421;DHT22;28063;48.140;11.588;2023-03-09T08:14:39;10.60;99.90
42421;DHT22;28063;48.140;11.588;2023-03-09T08:17:05;10.70;99.90
42421;DHT22;28063;48.140;11.588;2023-03-09T08:19:31;10.80;99.90
42421;DHT22;28063;48.140;11.588;2023-03-09T08:21:56;11.00;99.90
42421;DHT22;28063;48.140;11.588;2023-03-09T08:24:22;11.10;99.80
42421;DHT22;28063;48.140;11.588;2023-03-09T08:26:48;11.20;99.50
42421;DHT22;28063;48.140;11.588;2023-03-09T08:29:14;11.30;99.00
42421;DHT22;28063;48.140;11.588;2023-03-09T08:31:40;11.50;97.90
42421;DHT22;28063;48.140;11.588;2023-03-09T08:34:06;11.60;97.20
42421;DHT22;28063;48.140;11.588;2023-03-09T08:36:32;11.70;97.00
42421;DHT22;28063;48.140;11.588;2023-03-09T08:38:58;11.80;96.70
42421;DHT22;28063;48.140;11.588;2023-03-09T08:41:24;11.80;95.80
42421;DHT22;28063;48.140;11.588;2023-03-09T08:43:50;11.70;95.60
42421;DHT22;28063;48.140;11.588;2023-03-09T08:46:16;11.60;95.50
42421;DHT22;28063;48.140;11.588;2023-03-09T08:48:42;11.50;95.60
42421;DHT22;28063;48.140;11.588;2023-03-09T08:51:09;11.50;95.70
42421;DHT22;28063;48.140;11.588;2023-03-09T08:53:37;11.50;95.60
42421;DHT22;28063;48.140;11.588;2023-03-09T08:56:08;11.70;95.50
42421;DHT22;28063;48.140;11.588;2023-03-09T08:58:34;11.90;94.40
42421;DHT22;28063;48.140;11.588;2023-03-09T09:01:05;12.30;94.20
42421;DHT22;28063;48.140;11.588;2023-03-09T09:03:31;12.60;93.00
42421;DHT22;28063;48.140;11.588;2023-03-09T09:06:03;12.70;92.30
42421;DHT22;28063;48.140;11.588;2023-03-09T09:08:29;12.80;91.30
42421;DHT22;28063;48.140;11.588;2023-03-09T09:10:54;12.80;90.50
42421;DHT22;28063;48.140;11.588;2023-03-09T09:13:22;12.90;90.80
42421;DHT22;28063;48.140;11.588;2023-03-09T09:15:54;12.90;90.00
42421;DHT22;28063;48.140;11.588;2023-03-09T09:18:21;12.80;90.10
42421;DHT22;28063;48.140;11.588;2023-03-09T09:20:47;12.90;90.40
42421;DHT22;28063;48.140;11.588;2023-03-09T09:23:13;13.40;90.00
42421;DHT22;28063;48.140;11.588;2023-03-09T09:25:39;14.00;86.20
42421;DHT22;28063;48.140;11.588;2023-03-09T09:28:05;14.40;84.70
42421;DHT22;28063;48.140;11.588;2023-03-09T09:30:32;14.50;80.80
42421;DHT22;28063;48.140;11.588;2023-03-09T09:32:59;14.30;81.10
42421;DHT22;28063;48.140;11.588;2023-03-09T09:35:25;14.10;80.00
42421;DHT22;28063;48.140;11.588;2023-03-09T09:37:51;13.80;79.80
42421;DHT22;28063;48.140;11.588;2023-03-09T09:40:23;13.50;81.60
42421;DHT22;28063;48.140;11.588;2023-03-09T09:43:26;13.40;82.70
42421;DHT22;28063;48.140;11.588;2023-03-09T09:45:59;13.50;82.80
42421;DHT22;28063;48.140;11.588;2023-03-09T09:48:27;13.80;80.00
42421;DHT22;28063;48.140;11.588;2023-03-09T09:56:40;14.00;77.40
42421;DHT22;28063;48.140;11.588;2023-03-09T09:59:15;14.00;76.20
42421;DHT22;28063;48.140;11.588;2023-03-09T10:05:00;14.40;75.10
42421;DHT22;28063;48.140;11.588;2023-03-09T10:07:27;14.50;73.50
42421;DHT22;28063;48.140;11.588;2023-03-09T10:10:05;14.30;72.70
42421;DHT22;28063;48.140;11.588;2023-03-09T10:12:32;14.00;73.90
42421;DHT22;28063;48.140;11.588;2023-03-09T10:15:13;13.80;74.20
42421;DHT22;28063;48.140;11.588;2023-03-09T10:17:44;13.80;74.80
42421;DHT22;28063;48.140;11.588;2023-03-09T10:20:22;13.60;74.30
42421;DHT22;28063;48.140;11.588;2023-03-09T10:22:50;13.50;74.80
42421;DHT22;28063;48.140;11.588;2023-03-09T10:25:20;13.50;75.60
42421;DHT22;28063;48.140;11.588;2023-03-09T10:27:54;13.60;75.10
42421;DHT22;28063;48.140;11.588;2023-03-09T10:30:45;13.60;75.30
42421;DHT22;28063;48.140;11.588;2023-03-09T10:33:45;13.70;75.10
42421;DHT22;28063;48.140;11.588;2023-03-09T10:36:20;13.70;74.30
42421;DHT22;28063;48.140;11.588;2023-03-09T10:38:47;13.60;73.90
42421;DHT22;28063;48.140;11.588;2023-03-09T10:41:19;13.50;74.30
42421;DHT22;28063;48.140;11.588;2023-03-09T10:43:45;13.40;75.10
42421;DHT22;28063;48.140;11.588;2023-03-09T10:46:15;13.50;75.40
42421;DHT22;28063;48.140;11.588;2023-03-09T10:48:43;13.60;75.50
42421;DHT22;28063;48.140;11.588;2023-03-09T10:52:16;13.70;74.20
42421;DHT22;28063;48.140;11.588;2023-03-09T10:54:24;13.70;71.60
42421;DHT22;28063;48.140;11.588;2023-03-09T10:56:53;13.60;72.90
42421;DHT22;28063;48.140;11.588;2023-03-09T10:59:27;13.70;72.60
42421;DHT22;28063;48.140;11.588;2023-03-09T11:01:59;13.60;71.60
42421;DHT22;28063;48.140;11.588;2023-03-09T11:04:26;13.50;71.40
42421;DHT22;28063;48.140;11.588;2023-03-09T11:09:49;13.50;69.70
42421;DHT22;28063;48.140;11.588;2023-03-09T11:12:32;13.50;69.00
42421;DHT22;28063;48.140;11.588;2023-03-09T11:15:40;13.60;68.20
42421;DHT22;28063;48.140;11.588;2023-03-09T11:18:27;13.80;67.00
42421;DHT22;28063;48.140;11.588;2023-03-09T11:20:54;14.00;67.20
42421;DHT22;28063;48.140;11.588;2023-03-09T11:26:03;13.70;66.30
42421;DHT22;28063;48.140;11.588;2023-03-09T11:31:16;13.70;66.90
42421;DHT22;28063;48.140;11.588;2023-03-09T11:33:43;13.80;66.70
42421;DHT22;28063;48.140;11.588;2023-03-09T11:36:15;13.80;66.80
42421;DHT22;28063;48.140;11.588;2023-03-09T11:38:43;14.00;66.70
42421;DHT22;28063;48.140;11.588;2023-03-09T11:41:19;14.10;65.60
42421;DHT22;28063;48.140;11.588;2023-03-09T11:43:51;14.30;64.50
42421;DHT22;28063;48.140;11.588;2023-03-09T11:46:20;14.40;64.70
42421;DHT22;28063;48.140;11.588;2023-03-09T11:49:09;14.40;63.90
42421;DHT22;28063;48.140;11.588;2023-03-09T11:51:44;14.40;63.90
42421;DHT22;28063;48.140;11.588;2023-03-09T11:57:01;14.30;62.70
42421;DHT22;28063;48.140;11.588;2023-03-09T12:00:01;14.10;63.40
42421;DHT22;28063;48.140;11.588;2023-03-09T12:05:16;14.50;63.30
42421;DHT22;28063;48.140;11.588;2023-03-09T12:08:02;14.60;62.30
42421;DHT22;28063;48.140;11.588;2023-03-09T12:11:13;14.60;62.60
42421;DHT22;28063;48.140;11.588;2023-03-09T12:16:20;14.80;60.70
42421;DHT22;28063;48.140;11.588;2023-03-09T12:19:17;14.90;60.40
42421;DHT22;28063;48.140;11.588;2023-03-09T12:21:49;15.10;59.80
42421;DHT22;28063;48.140;11.588;2023-03-09T12:27:22;15.20;60.00
42421;DHT22;28063;48.140;11.588;2023-03-09T12:32:39;15.60;59.10
42421;DHT22;28063;48.140;11.588;2023-03-09T12:42:44;15.80;57.80
42421;DHT22;28063;48.140;11.588;2023-03-09T12:50:22;16.00;58.50
42421;DHT22;28063;48.140;11.588;2023-03-09T12:55:50;16.10;56.20
42421;DHT22;28063;48.140;11.588;2023-03-09T13:06:44;15.70;55.80
42421;DHT22;28063;48.140;11.588;2023-03-09T13:16:58;16.00;55.70
42421;DHT22;28063;48.140;11.588;2023-03-09T13:24:28;16.10;55.50
42421;DHT22;28063;48.140;11.588;2023-03-09T13:29:57;15.70;56.50
42421;DHT22;28063;48.140;11.588;2023-03-09T13:34:59;16.00;56.00
42421;DHT22;28063;48.140;11.588;2023-03-09T13:37:30;16.30;55.00
42421;DHT22;28063;48.140;11.588;2023-03-09T13:40:05;16.40;55.20
42421;DHT22;28063;48.140;11.588;2023-03-09T13:42:36;16.70;54.80
42421;DHT22;28063;48.140;11.588;2023-03-09T13:45:02;17.00;54.00
42421;DHT22;28063;48.140;11.588;2023-03-09T13:47:33;17.30;53.20
42421;DHT22;28063;48.140;11.588;2023-03-09T13:50:00;17.40;52.40
42421;DHT22;28063;48.140;11.588;2023-03-09T13:52:28;17.50;52.70
42421;DHT22;28063;48.140;11.588;2023-03-09T13:54:58;17.60;52.30
42421;DHT22;28063;48.140;11.588;2023-03-09T13:57:32;17.60;51.90
42421;DHT22;28063;48.140;11.588;2023-03-09T14:02:42;17.30;52.30
42421;DHT22;28063;48.140;11.588;2023-03-09T14:07:52;17.20;52.30
42421;DHT22;28063;48.140;11.588;2023-03-09T14:15:46;16.60;52.60
42421;DHT22;28063;48.140;11.588;2023-03-09T14:23:48;15.60;55.30
42421;DHT22;28063;48.140;11.588;2023-03-09T14:26:25;15.20;56.20
42421;DHT22;28063;48.140;11.588;2023-03-09T14:29:14;14.90;57.30
42421;DHT22;28063;48.140;11.588;2023-03-09T14:31:44;14.60;58.30
42421;DHT22;28063;48.140;11.588;2023-03-09T14:36:55;14.30;59.40
42421;DHT22;28063;48.140;11.588;2023-03-09T14:44:35;14.20;60.50
42421;DHT22;28063;48.140;11.588;2023-03-09T14:47:00;14.30;60.70
42421;DHT22;28063;48.140;11.588;2023-03-09T14:49:26;14.40;60.80
42421;DHT22;28063;48.140;11.588;2023-03-09T14:51:52;14.80;60.30
42421;DHT22;28063;48.140;11.588;2023-03-09T14:54:18;15.10;59.60
42421;DHT22;28063;48.140;11.588;2023-03-09T14:56:45;15.60;59.00
42421;DHT22;28063;48.140;11.588;2023-03-09T14:59:15;16.10;63.20
42421;DHT22;28063;48.140;11.588;2023-03-09T15:01:44;16.30;56.90
42421;DHT22;28063;48.140;11.588;2023-03-09T15:04:15;16.60;56.10
42421;DHT22;28063;48.140;11.588;2023-03-09T15:06:42;16.70;55.90
42421;DHT22;28063;48.140;11.588;2023-03-09T15:09:09;16.70;55.70
42421;DHT22;28063;48.140;11.588;2023-03-09T15:11:36;16.50;54.50
42421;DHT22;28063;48.140;11.588;2023-03-09T15:14:10;16.10;55.70
42421;DHT22;28063;48.140;11.588;2023-03-09T15:16:36;15.70;56.60
42421;DHT22;28063;48.140;11.588;2023-03-09T15:19:03;15.40;57.10
42421;DHT22;28063;48.140;11.588;2023-03-09T15:21:28;15.20;57.80
42421;DHT22;28063;48.140;11.588;2023-03-09T15:26:20;15.00;58.10
42421;DHT22;28063;48.140;11.588;2023-03-09T15:28:45;14.90;58.40
42421;DHT22;28063;48.140;11.588;2023-03-09T15:31:11;14.90;58.80
42421;DHT22;28063;48.140;11.588;2023-03-09T15:33:38;14.90;58.80
42421;DHT22;28063;48.140;11.588;2023-03-09T15:36:05;14.80;58.20
42421;DHT22;28063;48.140;11.588;2023-03-09T15:38:31;14.70;58.80
42421;DHT22;28063;48.140;11.588;2023-03-09T15:40:57;14.60;58.80
42421;DHT22;28063;48.140;11.588;2023-03-09T15:43:23;14.60;58.90
42421;DHT22;28063;48.140;11.588;2023-03-09T15:45:48;14.50;58.60
42421;DHT22;28063;48.140;11.588;2023-03-09T15:48:14;14.60;58.50
42421;DHT22;28063;48.140;11.588;2023-03-09T15:50:40;14.60;59.00
42421;DHT22;28063;48.140;11.588;2023-03-09T15:53:08;14.50;59.40
42421;DHT22;28063;48.140;11.588;2023-03-09T15:55:34;14.30;59.90
42421;DHT22;28063;48.140;11.588;2023-03-09T15:57:59;14.30;60.10
42421;DHT22;28063;48.140;11.588;2023-03-09T16:00:25;14.20;60.30
42421;DHT22;28063;48.140;11.588;2023-03-09T16:02:58;14.10;60.70
42421;DHT22;28063;48.140;11.588;2023-03-09T16:05:23;14.00;60.80
42421;DHT22;28063;48.140;11.588;2023-03-09T16:07:49;13.90;61.20
42421;DHT22;28063;48.140;11.588;2023-03-09T16:10:15;13.70;61.60
42421;DHT22;28063;48.140;11.588;2023-03-09T16:12:41;13.50;62.20
42421;DHT22;28063;48.140;11.588;2023-03-09T16:15:08;13.30;62.60
42421;DHT22;28063;48.140;11.588;2023-03-09T16:17:33;13.20;63.10
42421;DHT22;28063;48.140;11.588;2023-03-09T16:19:59;13.00;63.40
42421;DHT22;28063;48.140;11.588;2023-03-09T16:22:25;13.00;64.40
42421;DHT22;28063;48.140;11.588;2023-03-09T16:24:52;13.00;64.00
42421;DHT22;28063;48.140;11.588;2023-03-09T16:27:18;13.00;64.10
42421;DHT22;28063;48.140;11.588;2023-03-09T16:29:43;13.10;64.10
42421;DHT22;28063;48.140;11.588;2023-03-09T16:32:09;13.20;63.90
42421;DHT22;28063;48.140;11.588;2023-03-09T16:34:35;13.20;63.80
42421;DHT22;28063;48.140;11.588;2023-03-09T16:37:03;13.20;63.80
42421;DHT22;28063;48.140;11.588;2023-03-09T16:39:30;13.00;64.10
42421;DHT22;28063;48.140;11.588;2023-03-09T16:41:56;12.90;64.30
42421;DHT22;28063;48.140;11.588;2023-03-09T16:44:22;12.80;64.70
42421;DHT22;28063;48.140;11.588;2023-03-09T16:46:54;12.70;65.10
42421;DHT22;28063;48.140;11.588;2023-03-09T16:49:23;12.60;65.50
42421;DHT22;28063;48.140;11.588;2023-03-09T16:51:49;12.50;65.90
42421;DHT22;28063;48.140;11.588;2023-03-09T16:54:14;12.40;66.10
42421;DHT22;28063;48.140;11.588;2023-03-09T16:56:41;12.30;66.60
42421;DHT22;28063;48.140;11.588;2023-03-09T16:59:06;12.20;66.60
42421;DHT22;28063;48.140;11.588;2023-03-09T17:01:32;12.30;66.00
42421;DHT22;28063;48.140;11.588;2023-03-09T17:03:58;12.20;65.90
42421;DHT22;28063;48.140;11.588;2023-03-09T17:06:23;12.20;65.80
42421;DHT22;28063;48.140;11.588;2023-03-09T17:08:50;12.20;65.60
42421;DHT22;28063;48.140;11.588;2023-03-09T17:11:17;12.10;65.50
42421;DHT22;28063;48.140;11.588;2023-03-09T17:13:44;12.00;65.40
42421;DHT22;28063;48.140;11.588;2023-03-09T17:16:11;11.90;65.40
42421;DHT22;28063;48.140;11.588;2023-03-09T17:18:36;11.80;65.50